Weather at Sussex County Airport

Public forecast

Using degrees Fahrenheit for public forecast. Weather courtesy of forecast.io.

Current aviation weather report (METAR) for Sussex County Airport

Retrieved 2020/09/27 13:31 UTC (5 minutes ago):

KGED 271331Z AUTO 06007KT 2 1/2SM -RA BR OVC005 22/21 A3000 RMK AO2 RAB28 P0000 T02170211

Closest aviation forecast (TAF) to Sussex County Airport

Closest forecast is Salisbury Ocean City Wicomico Regional Airport, 22.1 nm (41.0 km) SSW. Retrieved 2020/09/27 12:22 UTC (1 hour ago):

TAF KSBY 271120Z 2712/2812 00000KT 1SM BR OVC002 FM271400 VRB03KT P6SM BKN007 FM272200 18005KT P6SM BKN025 FM280100 19004KT P6SM BKN100 FM280700 18004KT 4SM BR BKN015